« Back
NWS Peachtree City, Ga » Text Product » MCN Terminal Aerodrome Forecast


Printer-friendly Version
Current Version              Previous Versions:   1  2  3  4  5  6  7  8  9  

Terminal Aerodrome Forecast

898
FTUS42 KFFC 182335
TAFMCN
TAF
KMCN 182335Z 1900/1924 29003KT P6SM SCT060 BKN120
      TEMPO 1900/1902 BKN060
     FM190200 31003KT P6SM SCT080 BKN150
     FM190900 00000KT P6SM SCT150
     FM191800 04003KT P6SM BKN120=



USA.gov is the U.S. government's official web portal to all federal, state and local government web resources and services.